createdAt,value
2023-04-15T00:01:18.961Z,97339.25
2023-04-15T00:04:22.663Z,97334.13
2023-04-15T00:07:26.661Z,97330.91
2023-04-15T00:10:30.443Z,97336.84
2023-04-15T00:13:34.796Z,97336.31
2023-04-15T00:16:40.078Z,97331.16
2023-04-15T00:19:44.785Z,97333.88
2023-04-15T00:22:48.841Z,97341.41
2023-04-15T00:25:52.754Z,97326.53
2023-04-15T00:28:56.309Z,97331.94
2023-04-15T00:32:01.410Z,97332.75
2023-04-15T00:35:05.679Z,97327.63
2023-04-15T00:38:10.016Z,97333.25
2023-04-15T00:41:13.969Z,97340.00
2023-04-15T00:44:18.877Z,97336.75
2023-04-15T00:47:25.104Z,97341.09
2023-04-15T00:50:28.788Z,97340.53
2023-04-15T00:53:32.455Z,97337.78
2023-04-15T00:56:38.620Z,97332.09
2023-04-15T00:59:42.229Z,97342.59
2023-04-15T01:02:47.823Z,97348.22
2023-04-15T01:05:53.009Z,97350.88
2023-04-15T01:08:58.769Z,97341.94
2023-04-15T01:12:02.634Z,97359.44
2023-04-15T01:15:09.453Z,97350.22
2023-04-15T01:18:14.764Z,97351.03
2023-04-15T01:21:19.378Z,97362.88
2023-04-15T01:24:25.193Z,97353.72
2023-04-15T01:27:31.283Z,97358.88
2023-04-15T01:30:36.164Z,97359.69
2023-04-15T01:33:42.373Z,97358.63
2023-04-15T01:36:46.386Z,97354.03
2023-04-15T01:39:51.550Z,97359.44
2023-04-15T01:42:56.669Z,97354.28
2023-04-15T01:46:00.507Z,97348.63
2023-04-15T01:49:04.120Z,97350.56
2023-04-15T01:52:09.549Z,97350.31
2023-04-15T01:55:14.077Z,97356.53
2023-04-15T01:58:19.540Z,97360.56
2023-04-15T02:01:23.620Z,97371.13
2023-04-15T02:04:28.063Z,97374.63
2023-04-15T02:07:32.486Z,97367.09
2023-04-15T02:10:36.282Z,97377.88
2023-04-15T02:13:41.742Z,97384.59
2023-04-15T02:16:45.477Z,97393.22
2023-04-15T02:19:51.798Z,97380.00
2023-04-15T02:22:56.776Z,97377.88
2023-04-15T02:26:00.338Z,97377.56
2023-04-15T02:29:05.861Z,97403.22
2023-04-15T02:32:11.383Z,97397.88
2023-04-15T02:35:15.175Z,97397.06
2023-04-15T02:38:18.786Z,97401.91
2023-04-15T02:41:27.158Z,97407.56
2023-04-15T02:44:32.440Z,97405.41
2023-04-15T02:47:41.576Z,97400.59
2023-04-15T02:50:45.148Z,97399.53
2023-04-15T02:53:51.369Z,97404.09
2023-04-15T02:56:56.362Z,97411.06
2023-04-15T03:00:01.718Z,97409.19
2023-04-15T03:03:07.536Z,97413.22
2023-04-15T03:06:11.719Z,97412.66
2023-04-15T03:09:15.375Z,97416.41
2023-04-15T03:12:19.857Z,97418.56
2023-04-15T03:15:25.142Z,97412.88
2023-04-15T03:18:30.371Z,97422.53
2023-04-15T03:21:37.754Z,97417.63
2023-04-15T03:24:41.564Z,97423.19
2023-04-15T03:27:45.181Z,97421.56
2023-04-15T03:30:51.931Z,97423.41
2023-04-15T03:33:55.675Z,97428.25
2023-04-15T03:37:00.585Z,97429.81
2023-04-15T03:40:04.380Z,97432.22
2023-04-15T03:43:08.136Z,97430.28
2023-04-15T03:46:13.464Z,97425.38
2023-04-15T03:49:17.151Z,97432.91
2023-04-15T03:52:21.110Z,97441.22
2023-04-15T03:55:25.589Z,97443.38
2023-04-15T03:58:29.217Z,97443.88
2023-04-15T04:01:34.292Z,97446.59
2023-04-15T04:04:37.740Z,97453.84
2023-04-15T04:07:41.631Z,97455.97
2023-04-15T04:10:45.267Z,97452.78
2023-04-15T04:13:49.003Z,97451.72
2023-04-15T04:16:53.976Z,97453.09
2023-04-15T04:19:57.869Z,97457.41
2023-04-15T04:23:01.745Z,97466.06
2023-04-15T04:26:05.466Z,97463.59
2023-04-15T04:29:11.114Z,97461.47
2023-04-15T04:32:16.433Z,97469.06
2023-04-15T04:35:20.784Z,97460.16
2023-04-15T04:38:24.533Z,97465.88
2023-04-15T04:41:28.500Z,97468.13
2023-04-15T04:44:32.173Z,97472.50
2023-04-15T04:47:37.499Z,97466.59
2023-04-15T04:50:41.984Z,97479.25
2023-04-15T04:53:45.623Z,97477.38
2023-04-15T04:56:49.310Z,97484.41
2023-04-15T04:59:52.863Z,97485.47
2023-04-15T05:02:58.730Z,97496.25
2023-04-15T05:06:03.264Z,97497.38
2023-04-15T05:09:07.219Z,97512.56
2023-04-15T05:12:14.912Z,97509.63
2023-04-15T05:15:18.658Z,97517.50
2023-04-15T05:18:23.753Z,97524.59
2023-04-15T05:21:28.253Z,97519.25
2023-04-15T05:24:32.080Z,97523.25
2023-04-15T05:27:36.108Z,97527.28
2023-04-15T05:30:40.441Z,97509.47
2023-04-15T05:33:45.938Z,97518.81
2023-04-15T05:36:49.456Z,97517.41
2023-04-15T05:39:53.149Z,97534.06
2023-04-15T05:42:56.798Z,97527.88
2023-04-15T05:46:00.631Z,97528.50
2023-04-15T05:49:06.195Z,97529.59
2023-04-15T05:52:09.861Z,97539.00
2023-04-15T05:55:14.292Z,97543.81
2023-04-15T05:58:18.027Z,97542.09
2023-04-15T06:01:22.627Z,97550.25
2023-04-15T06:04:27.923Z,97558.97
2023-04-15T06:07:31.499Z,97571.44
2023-04-15T06:10:37.238Z,97561.72
2023-04-15T06:13:41.105Z,97571.13
2023-04-15T06:16:44.741Z,97561.38
2023-04-15T06:19:51.720Z,97564.31
2023-04-15T06:22:55.570Z,97564.31
2023-04-15T06:25:59.135Z,97554.03
2023-04-15T06:29:03.049Z,97555.16
2023-04-15T06:32:07.569Z,97565.00
2023-04-15T06:35:12.756Z,97565.06
2023-04-15T06:38:16.629Z,97572.09
2023-04-15T06:41:20.584Z,97577.78
2023-04-15T06:44:24.215Z,97570.66
2023-04-15T06:47:27.945Z,97570.91
2023-04-15T06:50:33.139Z,97584.00
2023-04-15T06:53:41.083Z,97586.28
2023-04-15T06:56:44.671Z,97594.47
2023-04-15T06:59:48.290Z,97595.50
2023-04-15T07:02:52.882Z,97599.91
2023-04-15T07:05:57.954Z,97608.28
2023-04-15T07:09:01.942Z,97607.16
2023-04-15T07:12:05.965Z,97619.78
2023-04-15T07:15:10.366Z,97619.84
2023-04-15T07:18:14.157Z,97628.31
2023-04-15T07:21:19.124Z,97626.75
2023-04-15T07:24:26.629Z,97627.88
2023-04-15T07:27:30.264Z,97625.94
2023-04-15T07:30:34.542Z,97633.16
2023-04-15T07:33:38.246Z,97623.16
2023-04-15T07:36:43.619Z,97619.50
2023-04-15T07:39:47.431Z,97625.34
2023-04-15T07:42:51.483Z,97615.91
2023-04-15T07:45:55.445Z,97623.81
2023-04-15T07:48:59.207Z,97616.84
2023-04-15T07:52:04.265Z,97629.06
2023-04-15T07:55:09.967Z,97636.69
2023-04-15T07:58:13.466Z,97633.19
2023-04-15T08:01:17.284Z,97633.81
2023-04-15T08:04:20.885Z,97631.72
2023-04-15T08:07:26.380Z,97620.94
2023-04-15T08:10:31.080Z,97623.66
2023-04-15T08:13:34.894Z,97628.03
2023-04-15T08:16:38.738Z,97632.09
2023-04-15T08:19:42.701Z,97624.25
2023-04-15T08:22:51.804Z,97634.03
2023-04-15T08:25:55.445Z,97626.44
2023-04-15T08:28:59.324Z,97623.72
2023-04-15T08:32:03.961Z,97630.22
2023-04-15T08:35:09.242Z,97632.91
2023-04-15T08:38:14.392Z,97633.47
2023-04-15T08:41:24.451Z,97636.19
2023-04-15T08:44:31.685Z,97629.41
2023-04-15T08:47:37.571Z,97621.78
2023-04-15T08:50:42.127Z,97623.19
2023-04-15T08:53:48.229Z,97637.81
2023-04-15T08:56:53.057Z,97630.78
2023-04-15T08:59:58.256Z,97634.03
2023-04-15T09:03:03.352Z,97635.38
2023-04-15T09:06:07.524Z,97637.78
2023-04-15T09:09:14.937Z,97637.69
2023-04-15T09:12:18.341Z,97638.13
2023-04-15T09:15:22.460Z,97648.31
2023-04-15T09:18:30.778Z,97644.69
2023-04-15T09:21:35.404Z,97641.66
2023-04-15T09:24:43.491Z,97634.72
2023-04-15T09:27:50.434Z,97644.47
2023-04-15T09:30:58.094Z,97642.84
2023-04-15T09:34:01.942Z,97640.03
2023-04-15T09:37:07.584Z,97638.28
2023-04-15T09:40:14.664Z,97638.06
2023-04-15T09:43:18.057Z,97641.28
2023-04-15T09:46:22.211Z,97643.41
2023-04-15T09:49:25.957Z,97634.22
2023-04-15T09:52:30.101Z,97633.56
2023-04-15T09:55:35.127Z,97638.28
2023-04-15T09:58:39.389Z,97632.47
2023-04-15T10:01:43.920Z,97636.47
2023-04-15T10:04:50.729Z,97634.44
2023-04-15T10:07:55.187Z,97639.31
2023-04-15T10:11:02.826Z,97634.94
2023-04-15T10:14:09.169Z,97646.38
2023-04-15T10:17:14.839Z,97634.69
2023-04-15T10:20:20.973Z,97637.34
2023-04-15T10:23:25.768Z,97648.78
2023-04-15T10:26:32.090Z,97642.22
2023-04-15T10:29:36.269Z,97638.72
2023-04-15T10:32:41.516Z,97642.22
2023-04-15T10:35:47.551Z,97637.16
2023-04-15T10:38:51.118Z,97640.06
2023-04-15T10:42:11.022Z,97642.50
2023-04-15T10:45:19.663Z,97642.31
2023-04-15T10:48:23.347Z,97638.34
2023-04-15T10:51:32.637Z,97636.84
2023-04-15T10:54:38.970Z,97639.28
2023-04-15T10:57:45.522Z,97640.03
2023-04-15T11:00:53.502Z,97633.91
2023-04-15T11:03:57.442Z,97641.69
2023-04-15T11:07:08.537Z,97644.97
2023-04-15T11:10:55.104Z,97637.47
2023-04-15T11:14:00.779Z,97638.63
2023-04-15T11:17:05.709Z,97636.19
2023-04-15T11:20:10.220Z,97644.63
2023-04-15T11:23:15.722Z,97641.19
2023-04-15T11:26:19.815Z,97651.31
2023-04-15T11:29:31.212Z,97643.50
2023-04-15T11:32:34.899Z,97654.31
2023-04-15T11:35:38.310Z,97650.19
2023-04-15T11:38:46.111Z,97651.84
2023-04-15T11:41:49.961Z,97660.06
2023-04-15T11:45:09.379Z,97648.97
2023-04-15T11:48:14.934Z,97656.38
2023-04-15T11:51:20.839Z,97654.91
2023-04-15T11:54:24.454Z,97662.47
2023-04-15T11:57:32.994Z,97665.34
2023-04-15T12:00:39.681Z,97671.69
2023-04-15T12:03:46.873Z,97671.72
2023-04-15T12:06:50.595Z,97669.81
2023-04-15T12:09:57.876Z,97678.50
2023-04-15T12:13:01.597Z,97676.31
2023-04-15T12:16:07.281Z,97678.13
2023-04-15T12:19:13.700Z,97688.09
2023-04-15T12:22:19.950Z,97686.19
2023-04-15T12:25:36.073Z,97686.75
2023-04-15T12:28:42.237Z,97692.81
2023-04-15T12:31:52.808Z,97692.59
2023-04-15T12:34:56.792Z,97687.47
2023-04-15T12:38:00.572Z,97689.97
2023-04-15T12:41:04.319Z,97692.97
2023-04-15T12:44:08.704Z,97684.31
2023-04-15T12:47:14.619Z,97683.72
2023-04-15T12:50:18.480Z,97684.16
2023-04-15T12:53:22.314Z,97687.25
2023-04-15T12:56:26.022Z,97685.34
2023-04-15T12:59:30.108Z,97694.03
2023-04-15T13:02:35.296Z,97690.94
2023-04-15T13:05:40.322Z,97696.81
2023-04-15T13:08:55.125Z,97698.78
2023-04-15T13:12:02.653Z,97698.66
2023-04-15T13:15:07.181Z,97700.47
2023-04-15T13:18:12.448Z,97703.88
2023-04-15T13:21:16.569Z,97711.59
2023-04-15T13:24:20.366Z,97699.56
2023-04-15T13:27:23.977Z,97710.97
2023-04-15T13:30:27.902Z,97717.28
2023-04-15T13:33:32.899Z,97721.03
2023-04-15T13:36:36.626Z,97716.34
2023-04-15T13:39:40.049Z,97718.66
2023-04-15T13:42:44.022Z,97719.19
2023-04-15T13:45:49.116Z,97720.69
2023-04-15T13:48:54.862Z,97721.00
2023-04-15T13:51:58.259Z,97717.03
2023-04-15T13:55:18.238Z,97717.56
2023-04-15T13:58:23.700Z,97729.59
2023-04-15T14:01:27.477Z,97725.84
2023-04-15T14:04:33.335Z,97734.88
2023-04-15T14:07:37.317Z,97742.56
2023-04-15T14:10:41.826Z,97738.56
2023-04-15T14:13:45.583Z,97741.59
2023-04-15T14:16:49.679Z,97749.03
2023-04-15T14:19:54.933Z,97741.09
2023-04-15T14:22:58.668Z,97744.00
2023-04-15T14:26:02.335Z,97754.34
2023-04-15T14:29:06.157Z,97755.81
2023-04-15T14:32:11.955Z,97761.34
2023-04-15T14:35:17.991Z,97765.09
2023-04-15T14:38:22.649Z,97770.19
2023-04-15T14:41:26.840Z,97774.00
2023-04-15T14:47:35.212Z,97770.16
2023-04-15T14:50:41.426Z,97773.31
2023-04-15T14:53:45.314Z,97774.16
2023-04-15T14:56:49.059Z,97775.59
2023-04-15T14:59:56.554Z,97779.34
2023-04-15T15:03:00.382Z,97774.91
2023-04-15T15:06:06.030Z,97775.59
2023-04-15T15:09:09.968Z,97784.34
2023-04-15T15:12:13.694Z,97790.88
2023-04-15T15:15:28.625Z,97798.94
2023-04-15T15:18:32.982Z,97800.56
2023-04-15T15:21:38.626Z,97792.69
2023-04-15T15:24:42.102Z,97794.06
2023-04-15T15:27:46.132Z,97799.47
2023-04-15T15:30:49.796Z,97802.75
2023-04-15T15:33:53.555Z,97805.50
2023-04-15T15:36:58.680Z,97805.94
2023-04-15T15:40:03.539Z,97802.47
2023-04-15T15:43:07.230Z,97805.44
2023-04-15T15:46:11.073Z,97813.13
2023-04-15T15:49:14.696Z,97813.81
2023-04-15T15:52:20.233Z,97815.50
2023-04-15T15:55:25.410Z,97812.53
2023-04-15T15:58:29.184Z,97811.69
2023-04-15T16:01:32.900Z,97813.19
2023-04-15T16:04:36.992Z,97814.38
2023-04-15T16:07:42.092Z,97816.03
2023-04-15T16:10:46.365Z,97811.56
2023-04-15T16:13:49.957Z,97821.13
2023-04-15T16:16:54.320Z,97819.63
2023-04-15T16:20:00.766Z,97815.22
2023-04-15T16:23:15.047Z,97821.78
2023-04-15T16:26:18.770Z,97817.88
2023-04-15T16:29:22.398Z,97819.78
2023-04-15T16:32:26.505Z,97828.41
2023-04-15T16:35:31.306Z,97826.34
2023-04-15T16:38:37.041Z,97836.38
2023-04-15T16:41:42.611Z,97824.44
2023-04-15T16:44:46.540Z,97833.28
2023-04-15T16:47:50.347Z,97834.72
2023-04-15T16:50:53.814Z,97836.28
2023-04-15T16:53:59.090Z,97837.03
2023-04-15T16:57:03.505Z,97844.16
2023-04-15T17:00:09.107Z,97852.03
2023-04-15T17:03:12.928Z,97855.16
2023-04-15T17:06:17.296Z,97861.72
2023-04-15T17:09:22.383Z,97864.19
2023-04-15T17:12:26.286Z,97877.19
2023-04-15T17:15:29.835Z,97871.44
2023-04-15T17:18:33.477Z,97883.56
2023-04-15T17:21:37.062Z,97887.25
2023-04-15T17:24:42.086Z,97887.41
2023-04-15T17:27:45.636Z,97896.75
2023-04-15T17:30:49.554Z,97899.84
2023-04-15T17:34:02.959Z,97899.06
2023-04-15T17:37:11.560Z,97910.00
2023-04-15T17:40:16.738Z,97911.13
2023-04-15T17:43:20.728Z,97916.88
2023-04-15T17:46:24.604Z,97921.03
2023-04-15T17:49:30.706Z,97926.56
2023-04-15T17:52:34.301Z,97932.44
2023-04-15T17:55:39.528Z,97928.50
2023-04-15T17:58:43.182Z,97936.75
2023-04-15T18:01:47.172Z,97953.16
2023-04-15T18:04:50.862Z,97952.25
2023-04-15T18:07:55.127Z,97955.09
2023-04-15T18:11:00.113Z,97957.38
2023-04-15T18:14:04.953Z,97963.94
2023-04-15T18:17:09.004Z,97955.34
2023-04-15T18:20:13.471Z,97966.72
2023-04-15T18:23:17.157Z,97969.75
2023-04-15T18:26:22.710Z,97970.28
2023-04-15T18:29:26.586Z,97972.72
2023-04-15T18:32:32.592Z,97983.81
2023-04-15T18:35:36.894Z,97979.25
2023-04-15T18:38:40.806Z,97975.88
2023-04-15T18:41:45.933Z,97983.03
2023-04-15T18:44:49.952Z,97983.44
2023-04-15T18:47:53.796Z,97988.72
2023-04-15T18:50:58.483Z,97999.03
2023-04-15T18:54:02.004Z,97999.38
2023-04-15T18:57:07.623Z,97998.09
2023-04-15T19:00:13.293Z,98020.25
2023-04-15T19:03:17.224Z,98028.19
2023-04-15T19:06:22.205Z,98036.50
2023-04-15T19:09:26.754Z,98036.88
2023-04-15T19:12:31.737Z,98040.38
2023-04-15T19:15:35.511Z,98039.19
2023-04-15T19:18:39.101Z,98042.38
2023-04-15T19:21:43.328Z,98033.59
2023-04-15T19:24:47.319Z,98035.34
2023-04-15T19:27:52.867Z,98027.38
2023-04-15T19:30:56.652Z,98033.72
2023-04-15T19:34:00.682Z,98037.78
2023-04-15T19:37:04.263Z,98037.31
2023-04-15T19:40:09.870Z,98037.38
2023-04-15T19:43:14.776Z,98045.34
2023-04-15T19:46:18.943Z,98051.41
2023-04-15T19:49:22.761Z,98052.13
2023-04-15T19:52:26.658Z,98048.69
2023-04-15T19:55:30.363Z,98043.16
2023-04-15T19:58:35.993Z,98045.75
2023-04-15T20:01:39.622Z,98049.31
2023-04-15T20:04:43.430Z,98043.00
2023-04-15T20:07:48.749Z,98049.06
2023-04-15T20:10:52.459Z,98047.88
2023-04-15T20:13:57.358Z,98060.97
2023-04-15T20:17:01.083Z,98056.03
2023-04-15T20:20:06.355Z,98053.78
2023-04-15T20:23:10.164Z,98060.66
2023-04-15T20:26:13.948Z,98049.56
2023-04-15T20:29:19.184Z,98054.34
2023-04-15T20:32:24.310Z,98053.72
2023-04-15T20:35:28.230Z,98061.19
2023-04-15T20:38:31.874Z,98059.31
2023-04-15T20:41:35.659Z,98056.63
2023-04-15T20:44:40.694Z,98067.16
2023-04-15T20:47:44.625Z,98067.78
2023-04-15T20:50:48.128Z,98071.50
2023-04-15T20:53:52.297Z,98078.97
2023-04-15T20:56:58.010Z,98078.97
2023-04-15T21:00:04.949Z,98081.66
2023-04-15T21:03:08.426Z,98089.94
2023-04-15T21:06:12.446Z,98097.63
2023-04-15T21:09:15.869Z,98106.50
2023-04-15T21:12:19.647Z,98103.38
2023-04-15T21:15:24.562Z,98097.94
2023-04-15T21:18:28.432Z,98113.25
2023-04-15T21:21:32.745Z,98122.69
2023-04-15T21:24:36.806Z,98124.28
2023-04-15T21:27:40.180Z,98124.44
2023-04-15T21:30:45.620Z,98115.09
2023-04-15T21:33:49.265Z,98118.38
2023-04-15T21:36:52.954Z,98113.00
2023-04-15T21:39:56.621Z,98109.47
2023-04-15T21:43:00.388Z,98110.53
2023-04-15T21:46:24.279Z,98111.88
2023-04-15T21:49:29.118Z,98115.03
2023-04-15T21:52:32.622Z,98109.03
2023-04-15T21:55:36.882Z,98104.13
2023-04-15T21:58:40.494Z,98113.69
2023-04-15T22:01:45.815Z,98118.09
2023-04-15T22:04:49.252Z,98126.63
2023-04-15T22:07:53.203Z,98122.50
2023-04-15T22:10:56.970Z,98125.63
2023-04-15T22:14:01.136Z,98131.22
2023-04-15T22:17:06.265Z,98123.97
2023-04-15T22:20:11.520Z,98133.47
2023-04-15T22:23:17.423Z,98132.44
2023-04-15T22:26:21.611Z,98140.88
2023-04-15T22:29:24.967Z,98144.34
2023-04-15T22:32:30.123Z,98142.28
2023-04-15T22:35:34.381Z,98146.16
2023-04-15T22:38:38.295Z,98155.88
2023-04-15T22:41:41.852Z,98160.00
2023-04-15T22:44:45.772Z,98174.25
2023-04-15T22:47:50.620Z,98169.91
2023-04-15T22:50:54.660Z,98171.56
2023-04-15T22:53:58.322Z,98171.78
2023-04-15T22:57:03.210Z,98178.41
2023-04-15T23:00:08.670Z,98174.53
2023-04-15T23:03:14.427Z,98179.53
2023-04-15T23:06:18.245Z,98184.53
2023-04-15T23:09:22.432Z,98183.94
2023-04-15T23:12:25.854Z,98184.97
2023-04-15T23:15:29.897Z,98187.06
2023-04-15T23:18:35.479Z,98190.78
2023-04-15T23:21:39.270Z,98186.69
2023-04-15T23:24:42.778Z,98190.25
2023-04-15T23:27:46.398Z,98186.09
2023-04-15T23:30:49.720Z,98192.13
2023-04-15T23:33:54.760Z,98194.28
2023-04-15T23:36:58.130Z,98193.31
2023-04-15T23:40:01.772Z,98189.41
2023-04-15T23:43:05.187Z,98192.47
2023-04-15T23:46:09.464Z,98190.22
2023-04-15T23:49:14.355Z,98192.09
2023-04-15T23:52:18.140Z,98186.94
2023-04-15T23:55:21.813Z,98189.00
2023-04-15T23:58:26.715Z,98191.09
